Accueil
METAR-TAF:

METAR-TAF

Aéroports :

Aéroport de Minna

Minna, Nigeria

latitude: 9-37N, longitude: 6-32E, altitude: 260 m

Observation

Le bulletin a été fait il y a 55 minutes, à 14:00 UTC
Vent 12 kt de sud-ouest
Température 39°C
Humidité 36%
Pression 1008 hPa
Visibilité 10 km ou plus
Quelques nuages à une hauteur de 1400 ft

METAR: DNMN 101400Z 22012KT 9999 FEW014 39/21 Q1008

Heure: 15:55 (14:55 UTC)

Prévision

Le bulletin a été fait il y a 3 heures et 55 minutes, à 11:00 UTC
Prévision valable du 10 à 12 UTC au 11 à 18 UTC
Vent 14 kt de sud-ouest
Visibilité 10 km ou plus
Nuages épars à une hauteur de 1400 ft
Probabilité 30% :
Temporairement
du 10 à 15 UTC au 10 à 20 UTC
Quelques nuages à une hauteur de 2100 ft, Cumulonimbus.
orage

TAF: DNMN 101100Z 1012/1118 22014KT 9999 SCT014 PROB30 TEMPO 1015/1020 TS FEW021CB

Observations et prévisions météorologiques de plus de 4000 aéroports (messages METAR et TAF).

Les stations disponibles sont représentées par des disques jaunes et rouges sur la carte.

Passer la souris dessus pour voir le nom de la station.

Cliquer dessus pour voir les observations et prévisions météorologiques.

Pour changer de carte: cliquez sur les boutons verts avec une croix noire pour zoomer, sur le bouton vert avec un tiret pour effectuer un zoom arrière, ou sur les flèches vertes pour les cartes adjacentes.


METAR-TAF: